Time;durP1;ratioP1;P1;durP2;ratioP2;P2;SDS_P1;SDS_P2;PMS_P1;PMS_P2;Temp;Humidity;BMP_temperature;BMP_pressure;BME280_temperature;BME280_humidity;BME280_pressure;Samples;Min_cycle;Max_cycle;Signal;HPM_P1;HPM_P2
2023/03/01 00:01:50;;;;;;;14.30;9.50;;;;;;;2.27;72.39;102499.22;107598;1254;108085;-60
2023/03/01 00:04:19;;;;;;;20.60;10.70;;;;;;;2.29;72.36;102501.27;107700;1253;97982;-59
2023/03/01 00:06:47;;;;;;;16.20;10.80;;;;;;;2.29;71.97;102500.58;107683;1253;98363;-60
2023/03/01 00:09:16;;;;;;;18.70;10.40;;;;;;;2.24;71.65;102500.89;107635;1256;111962;-58
2023/03/01 00:11:45;;;;;;;22.30;11.80;;;;;;;2.17;71.81;102498.23;107641;1254;109304;-59
2023/03/01 00:14:17;;;;;;;20.40;12.60;;;;;;;2.14;71.76;102497.06;107500;1254;107497;-58
2023/03/01 00:16:46;;;;;;;25.50;12.00;;;;;;;2.08;71.79;102498.82;107646;1254;97930;-60
2023/03/01 00:19:19;;;;;;;16.20;11.10;;;;;;;1.96;71.76;102504.60;107440;1254;97972;-61
2023/03/01 00:21:49;;;;;;;17.60;11.40;;;;;;;1.79;71.69;102502.87;107476;1253;112119;-59
2023/03/01 00:24:17;;;;;;;22.70;11.00;;;;;;;1.68;71.76;102495.88;107441;1253;110853;-60
2023/03/01 00:26:46;;;;;;;20.50;12.00;;;;;;;1.63;72.00;102490.17;107511;1253;107762;-60
2023/03/01 00:29:14;;;;;;;21.40;12.40;;;;;;;1.60;71.97;102487.40;107443;1254;98019;-62
2023/03/01 00:31:43;;;;;;;19.80;11.80;;;;;;;1.61;72.22;102484.38;107664;1253;97819;-59
2023/03/01 00:34:11;;;;;;;20.90;13.00;;;;;;;1.56;72.18;102483.96;107629;1254;111737;-59
2023/03/01 00:36:40;;;;;;;22.90;11.70;;;;;;;1.50;72.21;102487.10;107468;1253;109858;-60
2023/03/01 00:39:13;;;;;;;22.40;13.10;;;;;;;1.42;72.41;102480.73;107558;1256;108260;-57
2023/03/01 00:41:42;;;;;;;;;;;;;;;1.40;72.46;102479.02;107599;1254;97902;-58
2023/03/01 00:44:11;;;;;;;21.40;12.20;;;;;;;1.39;72.99;102480.82;107591;1253;97727;-58
2023/03/01 00:46:40;;;;;;;20.70;11.70;;;;;;;1.38;73.25;102481.52;107600;1254;111836;-59
2023/03/01 00:49:09;;;;;;;21.10;12.00;;;;;;;1.39;73.22;102479.75;107441;1254;110168;-59
2023/03/01 00:51:39;;;;;;;22.90;12.70;;;;;;;1.39;73.20;102476.90;107571;1256;108568;-59
2023/03/01 00:54:09;;;;;;;24.90;13.00;;;;;;;1.44;73.61;102474.33;107544;1253;97963;-60
2023/03/01 00:56:37;;;;;;;24.00;12.90;;;;;;;1.38;73.45;102470.40;107504;1254;98332;-59
2023/03/01 00:59:06;;;;;;;24.80;12.60;;;;;;;1.30;73.83;102464.92;107609;1253;111997;-59
2023/03/01 01:01:34;;;;;;;21.40;12.90;;;;;;;1.27;73.62;102459.85;107667;1254;109310;-59
2023/03/01 01:04:06;;;;;;;20.00;12.00;;;;;;;1.31;73.77;102456.23;107570;1254;107539;-59
2023/03/01 01:06:44;;;;;;;23.20;12.30;;;;;;;1.30;73.59;102448.30;107576;1253;97829;-58
2023/03/01 01:09:18;;;;;;;19.50;11.50;;;;;;;1.38;73.87;102442.83;107466;1254;97927;-59
2023/03/01 01:11:50;;;;;;;21.70;12.00;;;;;;;1.44;74.08;102443.39;107636;1254;111493;-60
2023/03/01 01:14:20;;;;;;;21.40;11.50;;;;;;;1.52;73.98;102445.14;107486;1258;108809;-60
2023/03/01 01:16:49;;;;;;;20.50;12.20;;;;;;;1.59;73.96;102438.26;107595;1253;108650;-59
2023/03/01 01:19:18;;;;;;;22.40;11.60;;;;;;;1.65;73.62;102431.05;107554;1254;97828;-60
2023/03/01 01:21:48;;;;;;;20.30;12.20;;;;;;;1.61;72.61;102437.14;107676;1254;97729;-59
2023/03/01 01:24:17;;;;;;;21.00;11.80;;;;;;;1.50;71.96;102437.59;107639;1254;112002;-60
2023/03/01 01:26:46;;;;;;;22.40;13.30;;;;;;;1.37;71.55;102434.18;107662;1253;109705;-60
2023/03/01 01:29:15;;;;;;;22.90;13.80;;;;;;;1.22;71.53;102436.46;107539;1254;107545;-59
2023/03/01 01:31:44;;;;;;;21.20;13.20;;;;;;;1.12;71.78;102429.60;107614;1253;97852;-59
2023/03/01 01:34:16;;;;;;;23.10;13.40;;;;;;;1.00;72.14;102428.63;107669;1253;97723;-59
2023/03/01 01:36:48;;;;;;;24.10;12.80;;;;;;;0.83;72.24;102429.34;107621;1253;113328;-59
2023/03/01 01:39:17;;;;;;;27.30;15.10;;;;;;;0.65;72.60;102430.60;107471;1254;108893;-59
2023/03/01 01:41:46;;;;;;;28.30;14.00;;;;;;;0.53;72.75;102425.02;107651;1254;108189;-60
2023/03/01 01:44:18;;;;;;;24.60;14.70;;;;;;;0.49;73.04;102420.16;107629;1254;98111;-59
2023/03/01 01:46:58;;;;;;;24.30;13.80;;;;;;;0.47;73.10;102418.60;107639;1254;98369;-60
2023/03/01 01:49:46;;;;;;;25.90;13.90;;;;;;;0.43;73.20;102412.15;107603;1254;111821;-58
2023/03/01 01:52:22;;;;;;;26.40;15.00;;;;;;;0.42;73.02;102406.16;107521;1254;109709;-59
2023/03/01 01:54:57;;;;;;;26.30;13.80;;;;;;;0.40;73.05;102405.14;107455;1258;108785;-58
2023/03/01 01:57:35;;;;;;;24.80;14.50;;;;;;;0.39;73.09;102400.58;107464;1253;97909;-59
2023/03/01 02:00:11;;;;;;;28.60;14.50;;;;;;;0.34;73.14;102398.02;107621;1253;97743;-58
2023/03/01 02:02:47;;;;;;;28.60;14.00;;;;;;;0.29;73.02;102396.88;107706;1253;111757;-59
2023/03/01 02:05:26;;;;;;;25.20;14.30;;;;;;;0.27;73.06;102392.67;107659;1254;109908;-59
2023/03/01 02:07:56;;;;;;;27.60;15.50;;;;;;;0.25;72.87;102390.08;107605;1253;108337;-58
2023/03/01 02:10:26;;;;;;;29.90;16.10;;;;;;;0.22;72.83;102391.38;107499;1258;97919;-60
2023/03/01 02:12:56;;;;;;;24.60;14.90;;;;;;;0.21;72.82;102389.45;107626;1254;98898;-60
2023/03/01 02:15:26;;;;;;;27.50;15.40;;;;;;;0.19;72.86;102384.02;107667;1253;111430;-58
2023/03/01 02:17:56;;;;;;;24.40;14.30;;;;;;;0.18;73.16;102382.44;107619;1253;110167;-59
2023/03/01 02:20:57;;;;;;;27.70;15.00;;;;;;;0.18;73.42;102378.20;107619;1253;107291;-58
2023/03/01 02:23:26;;;;;;;28.70;16.40;;;;;;;0.19;73.60;102376.78;107160;1256;98001;-58
2023/03/01 02:26:08;;;;;;;23.50;14.20;;;;;;;0.22;73.86;102382.90;107622;1254;97844;-59
2023/03/01 02:28:40;;;;;;;25.60;13.80;;;;;;;0.25;74.04;102381.77;107630;1253;111263;-59
2023/03/01 02:33:58;;;;;;;29.00;13.90;;;;;;;0.31;74.25;102378.48;107579;1254;108232;-62
2023/03/01 02:36:34;;;;;;;26.40;13.90;;;;;;;0.35;74.40;102378.06;107406;1253;97782;-60
2023/03/01 02:39:05;;;;;;;26.30;14.20;;;;;;;0.37;74.43;102380.48;107628;1253;97823;-58
2023/03/01 02:41:38;;;;;;;28.80;13.40;;;;;;;0.39;74.52;102383.11;107454;1254;112048;-59
2023/03/01 02:44:08;;;;;;;31.30;15.30;;;;;;;0.38;74.36;102378.35;107412;1259;110900;-59
2023/03/01 02:46:44;;;;;;;25.40;13.20;;;;;;;0.32;73.97;102380.23;107477;1254;108073;-59
2023/03/01 02:49:20;;;;;;;27.50;14.30;;;;;;;0.24;74.03;102385.50;107599;1256;98492;-62
2023/03/01 02:52:22;;;;;;;29.70;14.10;;;;;;;0.20;74.38;102381.89;107732;1253;98363;-59
2023/03/01 02:55:06;;;;;;;26.10;14.70;;;;;;;0.15;74.45;102379.34;107563;1256;111952;-59
2023/03/01 02:57:39;;;;;;;27.60;15.50;;;;;;;0.09;74.49;102381.73;107493;1254;109040;-59
2023/03/01 03:00:20;;;;;;;34.30;16.70;;;;;;;0.03;74.64;102383.44;107439;1259;107712;-59
2023/03/01 03:02:51;;;;;;;29.60;16.00;;;;;;;-0.08;74.56;102378.17;107441;1254;97856;-59
2023/03/01 03:05:28;;;;;;;29.50;16.20;;;;;;;-0.13;74.94;102382.30;107523;1254;97835;-59
2023/03/01 03:08:01;;;;;;;31.20;17.10;;;;;;;-0.22;75.24;102376.45;107558;1256;112276;-59
2023/03/01 03:10:35;;;;;;;28.70;16.60;;;;;;;-0.31;75.43;102376.10;107550;1254;110542;-58
2023/03/01 03:13:07;;;;;;;29.70;16.30;;;;;;;-0.36;75.39;102371.80;107456;1254;109051;-60
2023/03/01 03:15:36;;;;;;;32.70;16.90;;;;;;;-0.33;75.92;102371.02;107490;1254;97870;-59
2023/03/01 03:18:08;;;;;;;33.90;17.50;;;;;;;-0.28;75.64;102372.17;107657;1254;98369;-59
2023/03/01 03:20:39;;;;;;;33.80;17.30;;;;;;;-0.22;75.71;102372.40;107604;1253;111243;-59
2023/03/01 03:23:08;;;;;;;29.80;16.20;;;;;;;-0.15;75.73;102373.02;107593;1256;109590;-59
2023/03/01 03:25:37;;;;;;;31.10;18.00;;;;;;;-0.11;75.50;102373.11;107598;1253;108734;-59
2023/03/01 03:28:09;;;;;;;31.50;17.90;;;;;;;-0.09;75.42;102373.42;107583;1254;97826;-58
2023/03/01 03:30:40;;;;;;;32.20;17.70;;;;;;;-0.10;75.27;102372.55;107644;1252;97694;-58
2023/03/01 03:33:10;;;;;;;35.00;18.00;;;;;;;-0.12;75.12;102371.53;107592;1254;112343;-60
2023/03/01 03:35:45;;;;;;;32.70;19.10;;;;;;;-0.14;75.23;102369.27;107574;1252;110691;-59
2023/03/01 03:38:18;;;;;;;35.90;18.70;;;;;;;-0.18;75.28;102365.83;107598;1253;108233;-60
2023/03/01 03:41:00;;;;;;;37.00;19.10;;;;;;;-0.21;75.02;102367.99;107586;1252;97890;-58
2023/03/01 03:43:32;;;;;;;33.90;18.00;;;;;;;-0.26;74.98;102368.77;107568;1254;97920;-59
2023/03/01 03:46:05;;;;;;;40.90;21.60;;;;;;;-0.30;74.97;102364.80;107505;1254;112103;-58
2023/03/01 03:48:36;;;;;;;37.20;19.40;;;;;;;-0.37;74.89;102362.98;107560;1254;109936;-59
2023/03/01 03:51:05;;;;;;;39.00;21.70;;;;;;;-0.45;74.98;102366.11;107621;1254;107458;-61
2023/03/01 03:53:34;;;;;;;41.70;22.20;;;;;;;-0.53;75.15;102365.70;107607;1256;97810;-60
2023/03/01 03:56:03;;;;;;;44.00;22.60;;;;;;;-0.59;75.44;102363.70;107613;1253;97808;-58
2023/03/01 03:58:34;;;;;;;40.90;23.70;;;;;;;-0.71;76.15;102363.54;107501;1254;112043;-60
2023/03/01 04:01:03;;;;;;;45.50;22.70;;;;;;;-0.88;76.83;102364.67;107637;1253;109828;-58
2023/03/01 04:03:34;;;;;;;42.90;24.10;;;;;;;-0.99;77.07;102364.83;107650;1252;107304;-59
2023/03/01 04:06:04;;;;;;;51.50;26.50;;;;;;;-1.06;77.85;102361.05;107601;1254;97823;-59
2023/03/01 04:08:32;;;;;;;52.00;25.40;;;;;;;-1.12;78.02;102353.05;107502;1253;99656;-59
2023/03/01 04:11:25;;;;;;;44.90;25.80;;;;;;;-1.20;79.15;102347.16;107611;1254;113222;-58
2023/03/01 04:13:54;;;;;;;41.30;23.90;;;;;;;-1.31;79.61;102340.98;107633;1254;109531;-62
2023/03/01 04:16:23;;;;;;;49.10;24.80;;;;;;;-1.37;80.06;102334.73;107578;1253;108669;-58
2023/03/01 04:18:56;;;;;;;42.80;23.30;;;;;;;-1.42;79.95;102337.60;107629;1254;97828;-59
2023/03/01 04:21:25;;;;;;;45.80;24.50;;;;;;;-1.46;80.56;102335.02;107691;1254;97029;-58
2023/03/01 04:23:53;;;;;;;48.20;26.50;;;;;;;-1.47;80.32;102338.91;107648;1254;111295;-60
2023/03/01 04:26:22;;;;;;;45.60;26.10;;;;;;;-1.47;80.52;102340.66;107651;1254;109720;-59
2023/03/01 04:28:50;;;;;;;44.50;25.00;;;;;;;-1.41;80.09;102338.48;107621;1251;108428;-59
2023/03/01 04:31:21;;;;;;;52.30;26.10;;;;;;;-1.33;79.98;102338.72;107554;1253;97816;-58
2023/03/01 04:33:55;;;;;;;46.60;25.10;;;;;;;-1.25;79.91;102337.91;107492;1254;98975;-59
2023/03/01 04:36:28;;;;;;;44.70;25.10;;;;;;;-1.16;79.98;102340.78;107613;1253;111701;-61
2023/03/01 04:38:57;;;;;;;53.70;26.80;;;;;;;-1.08;79.83;102348.58;107527;1253;107837;-58
2023/03/01 04:41:26;;;;;;;55.30;26.90;;;;;;;-1.05;79.71;102348.02;107611;1253;107557;-59
2023/03/01 04:43:54;;;;;;;47.20;25.90;;;;;;;-1.04;79.22;102348.36;107578;1253;97830;-60
2023/03/01 04:46:23;;;;;;;51.80;27.50;;;;;;;-1.05;79.09;102356.46;107445;1254;97841;-59
2023/03/01 04:48:51;;;;;;;55.20;26.60;;;;;;;-1.07;79.02;102356.48;107567;1252;112237;-61
2023/03/01 04:51:20;;;;;;;50.30;27.40;;;;;;;-1.09;79.08;102361.28;107592;1254;109566;-58
2023/03/01 04:53:49;;;;;;;55.50;28.30;;;;;;;-1.05;79.13;102361.58;107550;1253;108211;-60
2023/03/01 04:56:18;;;;;;;56.50;27.70;;;;;;;-1.04;79.09;102366.66;107611;1254;97789;-61
2023/03/01 04:58:46;;;;;;;53.60;27.80;;;;;;;-1.09;78.68;102365.14;107597;1253;97836;-60
2023/03/01 05:01:19;;;;;;;50.10;25.90;;;;;;;-1.14;78.53;102364.87;107578;1254;111732;-59
2023/03/01 05:03:50;;;;;;;50.90;25.70;;;;;;;-1.18;78.63;102368.44;107611;1254;109986;-60
2023/03/01 05:06:20;;;;;;;52.60;28.60;;;;;;;-1.26;78.79;102369.95;107456;1254;108295;-58
2023/03/01 05:08:48;;;;;;;47.30;26.40;;;;;;;-1.30;78.63;102375.64;107553;1254;97832;-59
2023/03/01 05:11:16;;;;;;;68.90;36.00;;;;;;;-1.30;78.76;102381.10;107605;1253;97827;-61
2023/03/01 05:13:45;;;;;;;56.70;28.00;;;;;;;-1.29;78.97;102377.21;107650;1253;111453;-58
2023/03/01 05:16:14;;;;;;;53.60;30.80;;;;;;;-1.29;79.13;102382.31;107516;1254;108762;-60
2023/03/01 05:18:43;;;;;;;57.80;30.00;;;;;;;-1.29;79.07;102383.73;107615;1254;108745;-59
2023/03/01 05:21:15;;;;;;;59.50;29.90;;;;;;;-1.34;79.09;102393.65;107567;1252;97863;-61
2023/03/01 05:23:44;;;;;;;62.10;30.40;;;;;;;-1.38;79.16;102394.58;107607;1254;97857;-61
2023/03/01 05:26:14;;;;;;;52.20;28.70;;;;;;;-1.37;79.63;102392.10;107599;1254;111873;-58
2023/03/01 05:28:59;;;;;;;61.00;30.50;;;;;;;-1.50;79.98;102397.89;107648;1254;109638;-58
2023/03/01 05:31:28;;;;;;;57.20;28.00;;;;;;;-1.62;80.38;102392.39;107569;1256;108953;-59
2023/03/01 05:33:56;;;;;;;79.40;44.90;;;;;;;-1.68;80.62;102388.78;107614;1254;97908;-60
2023/03/01 05:36:25;;;;;;;59.60;33.30;;;;;;;-1.74;81.12;102390.59;107545;1254;98450;-61
2023/03/01 05:38:53;;;;;;;65.40;32.10;;;;;;;-1.78;81.15;102389.75;107395;1253;112139;-59
2023/03/01 05:41:22;;;;;;;60.90;29.10;;;;;;;-1.83;81.80;102394.39;107550;1254;109681;-59
2023/03/01 05:43:51;;;;;;;54.50;29.90;;;;;;;-1.87;82.16;102391.27;107558;1256;108212;-58
2023/03/01 05:46:19;;;;;;;58.60;29.60;;;;;;;-1.87;82.36;102391.61;107592;1252;97813;-60
2023/03/01 05:48:48;;;;;;;58.30;28.70;;;;;;;-1.87;82.28;102393.02;107606;1254;97805;-60
2023/03/01 05:51:17;;;;;;;53.70;27.40;;;;;;;-1.82;82.26;102394.55;107606;1254;112429;-59
2023/03/01 05:53:46;;;;;;;54.30;27.00;;;;;;;-1.77;82.60;102402.59;107621;1252;109970;-59
2023/03/01 05:56:14;;;;;;;50.60;26.20;;;;;;;-1.75;82.36;102405.55;107586;1254;108161;-60
2023/03/01 05:58:43;;;;;;;52.20;27.30;;;;;;;-1.70;82.16;102404.63;107588;1253;97971;-60
2023/03/01 06:01:13;;;;;;;49.70;27.10;;;;;;;-1.68;81.79;102405.66;107636;1254;97810;-59
2023/03/01 06:03:42;;;;;;;53.50;28.50;;;;;;;-1.60;81.81;102402.05;107653;1253;110770;-59
2023/03/01 06:06:10;;;;;;;49.00;26.80;;;;;;;-1.44;81.86;102398.70;107665;1253;109086;-60
2023/03/01 06:08:38;;;;;;;57.00;27.90;;;;;;;-1.33;81.68;102395.56;107595;1252;108235;-60
2023/03/01 06:11:07;;;;;;;60.40;29.70;;;;;;;-1.18;81.60;102390.98;107592;1252;97861;-60
2023/03/01 06:13:36;;;;;;;55.00;28.70;;;;;;;-1.09;81.17;102388.73;107600;1256;98201;-59
2023/03/01 06:16:08;;;;;;;49.30;26.20;;;;;;;-1.05;80.67;102390.63;107603;1254;111257;-59
2023/03/01 06:18:37;;;;;;;48.30;26.90;;;;;;;-1.07;80.28;102393.83;107628;1254;109095;-60
2023/03/01 06:21:07;;;;;;;58.50;28.40;;;;;;;-1.09;79.90;102394.90;107642;1253;108178;-61
2023/03/01 06:23:35;;;;;;;54.30;26.90;;;;;;;-1.12;79.92;102395.31;107658;1256;97899;-59
2023/03/01 06:26:08;;;;;;;49.20;26.70;;;;;;;-1.15;79.97;102395.52;107635;1254;97963;-61
2023/03/01 06:28:37;;;;;;;46.50;25.30;;;;;;;-1.15;79.85;102393.05;107677;1253;113044;-61
2023/03/01 06:31:08;;;;;;;46.50;25.00;;;;;;;-1.12;79.74;102391.60;107583;1254;110873;-60
2023/03/01 06:33:37;;;;;;;49.70;26.00;;;;;;;-1.04;79.93;102388.14;107536;1253;107564;-60
2023/03/01 06:36:07;;;;;;;51.80;25.50;;;;;;;-0.97;79.66;102389.11;107562;1254;97831;-60
2023/03/01 06:38:35;;;;;;;56.20;27.00;;;;;;;-0.91;79.18;102387.96;107655;1253;97737;-60
2023/03/01 06:41:04;;;;;;;55.70;28.40;;;;;;;-0.80;79.22;102387.62;107614;1253;111004;-59
2023/03/01 06:43:32;;;;;;;56.30;26.20;;;;;;;-0.71;79.14;102384.14;107570;1254;109784;-60
2023/03/01 06:46:04;;;;;;;51.00;26.60;;;;;;;-0.61;78.87;102389.10;107290;1254;107836;-58
2023/03/01 06:48:33;;;;;;;52.00;28.20;;;;;;;-0.52;78.90;102388.08;107625;1254;97846;-60
2023/03/01 06:51:02;;;;;;;54.10;28.20;;;;;;;-0.48;78.34;102384.83;107615;1254;97812;-59
2023/03/01 06:53:30;;;;;;;53.90;27.60;;;;;;;-0.44;78.28;102387.95;107590;1254;111784;-60
2023/03/01 06:56:02;;;;;;;61.70;27.70;;;;;;;-0.38;78.17;102389.27;107569;1254;108687;-58
2023/03/01 06:58:31;;;;;;;53.80;27.60;;;;;;;-0.34;77.88;102391.13;107569;1254;108195;-59
2023/03/01 07:01:00;;;;;;;57.30;28.30;;;;;;;-0.34;77.31;102392.02;107552;1254;97711;-59
2023/03/01 07:03:28;;;;;;;55.00;27.40;;;;;;;-0.38;77.24;102395.59;107594;1254;97730;-61
2023/03/01 07:05:56;;;;;;;55.20;27.80;;;;;;;-0.33;77.37;102391.64;107511;1254;112101;-62
2023/03/01 07:08:25;;;;;;;53.30;26.50;;;;;;;-0.22;77.45;102388.28;107588;1253;108404;-59
2023/03/01 07:10:58;;;;;;;54.50;26.10;;;;;;;-0.11;77.04;102384.57;107416;1254;108424;-59
2023/03/01 07:13:26;;;;;;;56.50;25.70;;;;;;;-0.01;76.88;102379.64;107592;1252;97918;-60
2023/03/01 07:15:55;;;;;;;47.60;25.20;;;;;;;-0.08;75.66;102383.97;107515;1254;98396;-59
2023/03/01 07:18:24;;;;;;;46.90;24.70;;;;;;;-0.09;75.73;102379.60;107574;1254;111995;-59
2023/03/01 07:20:52;;;;;;;51.50;25.60;;;;;;;0.00;75.89;102381.71;107558;1256;109289;-58
2023/03/01 07:23:21;;;;;;;57.10;25.80;;;;;;;0.23;75.95;102381.48;107549;1257;108228;-59
2023/03/01 07:25:54;;;;;;;51.80;25.50;;;;;;;0.43;75.44;102374.38;107537;1254;97733;-60
2023/03/01 07:28:23;;;;;;;49.20;24.70;;;;;;;0.43;74.15;102379.66;107536;1254;97699;-59
2023/03/01 07:30:52;;;;;;;46.30;24.10;;;;;;;0.37;73.48;102376.44;107560;1254;111326;-59
2023/03/01 07:33:21;;;;;;;48.60;24.60;;;;;;;0.41;73.78;102373.89;107485;1254;109945;-59
2023/03/01 07:35:57;;;;;;;58.40;27.30;;;;;;;0.59;74.08;102369.27;107411;1254;107178;-60
2023/03/01 07:38:27;;;;;;;57.00;26.80;;;;;;;0.72;73.47;102363.52;107523;1252;97818;-60
2023/03/01 07:41:00;;;;;;;60.00;26.70;;;;;;;0.81;72.86;102366.34;107555;1254;97848;-60
2023/03/01 07:43:30;;;;;;;47.60;24.10;;;;;;;0.92;72.43;102366.98;107600;1253;110772;-59
2023/03/01 07:46:00;;;;;;;50.10;25.20;;;;;;;1.02;71.80;102361.98;107642;1254;109977;-59
2023/03/01 07:48:31;;;;;;;52.30;24.10;;;;;;;1.00;72.16;102362.38;107593;1253;108271;-60
2023/03/01 07:51:04;;;;;;;56.60;27.50;;;;;;;1.04;72.44;102363.16;107611;1254;97857;-60
2023/03/01 07:53:33;;;;;;;53.80;27.00;;;;;;;1.16;72.77;102361.84;107607;1254;97812;-60
2023/03/01 07:56:02;;;;;;;56.30;28.30;;;;;;;1.31;72.14;102357.23;107480;1254;112230;-61
2023/03/01 07:58:33;;;;;;;51.70;26.90;;;;;;;1.39;72.56;102358.29;107591;1254;109242;-60
2023/03/01 08:01:06;;;;;;;56.20;27.20;;;;;;;1.48;72.45;102356.13;107486;1254;108541;-61
2023/03/01 08:03:36;;;;;;;53.70;26.30;;;;;;;1.50;71.78;102355.38;107517;1258;98030;-60
2023/03/01 08:06:07;;;;;;;46.40;26.60;;;;;;;1.54;71.44;102350.86;107725;1253;97704;-60
2023/03/01 08:08:36;;;;;;;54.30;27.70;;;;;;;1.56;71.28;102349.21;107654;1254;115082;-61
2023/03/01 08:11:07;;;;;;;56.60;28.40;;;;;;;1.63;70.89;102342.13;107553;1254;109374;-60
2023/03/01 08:13:35;;;;;;;53.10;27.40;;;;;;;1.77;71.10;102336.98;107562;1259;107759;-60
2023/03/01 08:16:10;;;;;;;52.40;27.10;;;;;;;1.87;70.39;102333.73;107539;1254;97857;-60
2023/03/01 08:18:40;;;;;;;46.50;25.00;;;;;;;2.00;70.80;102325.74;107336;1254;97829;-60
2023/03/01 08:21:15;;;;;;;43.00;24.30;;;;;;;2.18;70.42;102326.67;107587;1253;112374;-60
2023/03/01 08:23:44;;;;;;;49.70;24.50;;;;;;;2.43;70.45;102323.47;107536;1254;110114;-61
2023/03/01 08:26:20;;;;;;;53.70;25.80;;;;;;;2.61;69.76;102323.31;107583;1254;108488;-59
2023/03/01 08:28:50;;;;;;;57.00;25.70;;;;;;;2.69;68.32;102323.25;107574;1254;97701;-59
2023/03/01 08:31:27;;;;;;;40.60;22.80;;;;;;;2.70;67.44;102313.82;107571;1253;97854;-61
2023/03/01 08:33:59;;;;;;;45.60;23.70;;;;;;;2.51;65.82;102316.33;107588;1254;112388;-59
2023/03/01 08:36:35;;;;;;;43.30;24.80;;;;;;;2.46;66.76;102313.46;107600;1254;108872;-59
2023/03/01 08:39:05;;;;;;;38.40;21.30;;;;;;;2.63;67.02;102309.95;107503;1252;108981;-61
2023/03/01 08:41:33;;;;;;;42.80;22.30;;;;;;;2.92;67.38;102308.17;107575;1254;97812;-60
2023/03/01 08:44:02;;;;;;;48.10;22.70;;;;;;;3.35;67.15;102299.69;107568;1254;97816;-60
2023/03/01 08:46:33;;;;;;;47.90;22.50;;;;;;;3.63;65.54;102290.04;107600;1253;112689;-59
2023/03/01 08:49:06;;;;;;;38.50;20.40;;;;;;;3.65;64.04;102290.67;107512;1254;109877;-59
2023/03/01 08:51:38;;;;;;;44.90;21.80;;;;;;;3.58;63.32;102293.61;107513;1254;108745;-61
2023/03/01 08:54:14;;;;;;;42.40;21.30;;;;;;;3.38;63.05;102293.58;107495;1254;97679;-60
2023/03/01 08:56:43;;;;;;;50.80;23.70;;;;;;;3.38;63.40;102289.13;107609;1254;97844;-62
2023/03/01 08:59:13;;;;;;;49.00;24.40;;;;;;;3.27;62.87;102282.06;107558;1255;109237;-59
2023/03/01 09:01:44;;;;;;;51.90;22.90;;;;;;;3.21;63.34;102283.66;107586;1254;109074;-60
2023/03/01 09:04:15;;;;;;;40.10;21.90;;;;;;;3.49;64.53;102275.80;107562;1254;107791;-61
2023/03/01 09:06:44;;;;;;;46.80;22.40;;;;;;;3.88;64.31;102275.52;107465;1254;97703;-60
2023/03/01 09:09:16;;;;;;;43.70;21.60;;;;;;;4.26;63.73;102271.25;107372;1254;98389;-62
2023/03/01 09:11:45;;;;;;;50.20;22.60;;;;;;;4.62;63.10;102265.59;107579;1253;111360;-61
2023/03/01 09:14:14;;;;;;;49.40;22.30;;;;;;;5.03;61.25;102262.39;107581;1254;108906;-60
2023/03/01 09:16:43;;;;;;;44.10;24.50;;;;;;;5.28;60.89;102259.20;107589;1252;108250;-60
2023/03/01 09:19:12;;;;;;;47.40;21.40;;;;;;;5.48;60.44;102259.25;107457;1254;97943;-61
2023/03/01 09:21:52;;;;;;;43.50;22.70;;;;;;;5.54;58.74;102257.89;107555;1253;97832;-59
2023/03/01 09:24:22;;;;;;;41.70;20.40;;;;;;;5.78;58.88;102254.92;107573;1254;112887;-62
2023/03/01 09:26:56;;;;;;;41.60;19.90;;;;;;;5.82;57.22;102251.52;107563;1253;108769;-60
2023/03/01 09:29:25;;;;;;;38.00;19.50;;;;;;;5.83;58.40;102252.74;107602;1253;106502;-60
2023/03/01 09:31:57;;;;;;;35.90;19.80;;;;;;;5.98;58.06;102254.05;107538;1256;97811;-59
2023/03/01 09:34:25;;;;;;;39.90;19.20;;;;;;;6.73;56.67;102246.45;107550;1254;97914;-59
2023/03/01 09:36:54;;;;;;;38.70;20.60;;;;;;;6.85;54.82;102246.62;107555;1254;111875;-63
2023/03/01 09:39:22;;;;;;;36.60;18.00;;;;;;;7.09;55.68;102247.91;107571;1254;110637;-60
2023/03/01 09:42:01;;;;;;;39.80;19.10;;;;;;;7.44;55.41;102242.59;107552;1254;107505;-61
2023/03/01 09:44:48;;;;;;;42.20;19.70;;;;;;;7.39;53.61;102250.13;107645;1253;97882;-60
2023/03/01 09:47:27;;;;;;;42.80;18.00;;;;;;;8.15;54.35;102248.31;107682;1254;97709;-61
2023/03/01 09:50:05;;;;;;;30.60;17.00;;;;;;;9.29;51.72;102237.76;107533;1256;111161;-62
2023/03/01 09:52:55;;;;;;;36.30;17.90;;;;;;;10.40;50.44;102230.41;107179;1254;505219;-61
2023/03/01 09:55:47;;;;;;;32.20;16.90;;;;;;;11.52;48.52;102228.17;107544;1257;107539;-59
2023/03/01 09:58:26;;;;;;;31.90;16.60;;;;;;;12.35;45.11;102223.98;107556;1256;98008;-60
2023/03/01 10:00:59;;;;;;;27.70;13.50;;;;;;;12.79;42.58;102226.83;107577;1252;97770;-60
2023/03/01 10:03:39;;;;;;;24.20;11.80;;;;;;;13.26;42.45;102218.81;107674;1254;112284;-59
2023/03/01 10:06:19;;;;;;;25.70;12.80;;;;;;;13.74;41.69;102218.34;107562;1254;110101;-61
2023/03/01 10:09:09;;;;;;;26.80;13.80;;;;;;;13.96;37.05;102218.43;107476;1254;109507;-61
2023/03/01 10:11:42;;;;;;;21.50;12.20;;;;;;;13.98;38.02;102215.59;107562;1252;97821;-60
2023/03/01 10:14:33;;;;;;;28.60;9.70;;;;;;;14.27;39.08;102212.16;107590;1254;97812;-60
2023/03/01 10:17:29;;;;;;;24.00;10.10;;;;;;;14.90;38.30;102213.73;107640;1254;111775;-62
2023/03/01 10:20:12;;;;;;;32.20;10.80;;;;;;;15.29;37.76;102215.44;107664;1253;110323;-62
2023/03/01 10:22:40;;;;;;;25.20;9.20;;;;;;;15.16;37.54;102214.76;107584;1253;108340;-60
2023/03/01 10:25:14;;;;;;;19.40;10.30;;;;;;;15.71;38.05;102214.19;107627;1254;97784;-63
2023/03/01 10:27:54;;;;;;;25.20;10.80;;;;;;;16.24;35.79;102203.44;107719;1254;97719;-61
2023/03/01 10:30:43;;;;;;;23.30;9.20;;;;;;;15.87;35.14;102205.37;107547;1254;112281;-62
2023/03/01 10:33:29;;;;;;;17.10;7.80;;;;;;;15.31;35.28;102204.27;107550;1254;109929;-62
2023/03/01 10:36:12;;;;;;;24.20;10.20;;;;;;;15.13;35.10;102208.33;107554;1253;108341;-65
2023/03/01 10:39:10;;;;;;;24.90;11.70;;;;;;;14.37;33.87;102203.23;107380;1253;97920;-62
2023/03/01 10:42:01;;;;;;;26.80;10.90;;;;;;;14.23;34.67;102200.42;107602;1253;97931;-61
2023/03/01 10:44:36;;;;;;;28.30;11.20;;;;;;;13.22;36.17;102201.80;107552;1254;111688;-62
2023/03/01 10:47:23;;;;;;;14.70;8.70;;;;;;;12.23;36.62;102205.55;107472;1259;108993;-61
2023/03/01 10:50:09;;;;;;;20.10;10.00;;;;;;;12.00;37.93;102198.06;107527;1254;108808;-62
2023/03/01 10:52:41;;;;;;;23.50;9.60;;;;;;;11.65;38.44;102192.77;107565;1254;97851;-60
2023/03/01 10:55:27;;;;;;;23.80;9.70;;;;;;;11.15;39.58;102186.34;107612;1254;97768;-61
2023/03/01 10:58:22;;;;;;;27.60;9.00;;;;;;;10.82;40.12;102185.89;107380;1254;110860;-60
2023/03/01 11:00:58;;;;;;;26.90;10.50;;;;;;;10.61;39.64;102178.98;107551;1257;109437;-60
2023/03/01 11:03:35;;;;;;;33.90;9.80;;;;;;;10.62;40.41;102179.27;107352;1255;108881;-60
2023/03/01 11:06:04;;;;;;;31.20;11.20;;;;;;;10.18;40.57;102173.50;107534;1254;97925;-60
2023/03/01 11:08:36;;;;;;;20.40;10.20;;;;;;;9.63;41.54;102174.30;107541;1254;98382;-60
2023/03/01 11:11:16;;;;;;;23.80;9.60;;;;;;;9.51;41.99;102169.64;107568;1254;112380;-61
2023/03/01 11:13:53;;;;;;;22.90;9.10;;;;;;;10.57;41.73;102161.86;107473;1254;110267;-60
2023/03/01 11:16:30;;;;;;;21.20;9.70;;;;;;;10.68;41.10;102164.36;107513;1254;108731;-59
2023/03/01 11:19:21;;;;;;;28.00;10.30;;;;;;;9.90;40.99;102167.17;107480;1254;97873;-64
2023/03/01 11:22:01;;;;;;;25.20;9.80;;;;;;;9.11;42.62;102165.41;107538;1256;97839;-61
2023/03/01 11:24:43;;;;;;;26.10;10.20;;;;;;;8.80;43.56;102165.84;107530;1254;112026;-61
2023/03/01 11:27:37;;;;;;;27.30;10.00;;;;;;;8.46;44.21;102171.00;107551;1254;109213;-63
2023/03/01 11:30:21;;;;;;;16.80;10.10;;;;;;;7.88;45.21;102174.53;107546;1254;107894;-61